Time;durP1;ratioP1;P1;durP2;ratioP2;P2;SDS_P1;SDS_P2;PMS_P1;PMS_P2;Temp;Humidity;BMP_temperature;BMP_pressure;BME280_temperature;BME280_humidity;BME280_pressure;Samples;Min_cycle;Max_cycle;Signal;HPM_P1;HPM_P2
2024/04/07 00:00:51;;;;;;;;;;;;;;;24.37;40.75;94266.72;4993028;28;7296;-63
2024/04/07 00:03:23;;;;;;;;;;;;;;;24.39;40.89;94264.97;5011998;28;7080;-63
2024/04/07 00:05:53;;;;;;;;;;;;;;;24.34;40.84;94254.00;5012536;28;7292;-63
2024/04/07 00:08:23;;;;;;;;;;;;;;;24.38;41.15;94265.50;5002826;28;7639;-63
2024/04/07 00:10:48;;;;;;;;;;;;;;;24.31;40.69;94244.03;5051831;28;7123;-63
2024/04/07 00:13:16;;;;;;;;;;;;;;;24.28;41.20;94243.03;5080392;28;7127;-63
2024/04/07 00:15:46;;;;;;;;;;;;;;;24.21;41.16;94226.31;5077001;28;7112;-63
2024/04/07 00:18:14;;;;;;;;;;;;;;;24.34;40.61;94254.00;5080378;28;7045;-64
2024/04/07 00:20:40;;;;;;;;;;;;;;;24.31;40.90;94235.78;5085415;28;7063;-63
2024/04/07 00:23:06;;;;;;;;;;;;;;;24.32;40.87;94249.00;5067683;28;9570;-63
2024/04/07 00:25:40;;;;;;;;;;;;;;;24.30;40.64;94243.28;5061245;28;7013;-63
2024/04/07 00:28:10;;;;;;;;;;;;;;;24.29;40.69;94233.53;5056575;28;7276;-63
2024/04/07 00:30:43;;;;;;;;;;;;;;;24.28;41.23;94234.78;5072020;28;7449;-63
2024/04/07 00:33:15;;;;;;;;;;;;;;;24.32;41.19;94231.75;5078185;28;7161;-65
2024/04/07 00:35:52;;;;;;;;;;;;;;;24.33;40.71;94244.25;5081956;28;7104;-65
2024/04/07 00:38:48;;;;;;;;;;;;;;;24.34;40.67;94234.75;5091954;28;7043;-65
2024/04/07 00:41:16;;;;;;;;;;;;;;;24.33;41.09;94231.28;5071845;28;7383;-65
2024/04/07 00:43:42;;;;;;;;;;;;;;;24.33;41.37;94228.53;5073792;28;7113;-65
2024/04/07 00:46:08;;;;;;;;;;;;;;;24.34;40.50;94223.75;5073526;28;9393;-65
2024/04/07 00:48:34;;;;;;;;;;;;;;;24.28;41.00;94215.53;5073722;28;7158;-65
2024/04/07 00:51:04;;;;;;;;;;;;;;;24.22;40.79;94212.06;5072140;28;7237;-65
2024/04/07 00:53:38;;;;;;;;;;;;;;;24.24;41.23;94206.81;5090946;28;7247;-65
2024/04/07 00:56:04;;;;;;;;;;;;;;;24.19;40.80;94204.84;5071822;28;7660;-65
2024/04/07 00:58:32;;;;;;;;;;;;;;;24.15;41.31;94200.84;5084207;28;7432;-65
2024/04/07 01:01:07;;;;;;;;;;;;;;;24.14;40.34;94191.13;5071416;28;8896;-65
2024/04/07 01:03:36;;;;;;;;;;;;;;;24.14;41.08;94194.59;5093035;28;7035;-65
2024/04/07 01:06:02;;;;;;;;;;;;;;;24.15;40.57;94200.84;5075380;28;9412;-65
2024/04/07 01:08:28;;;;;;;;;;;;;;;24.08;40.95;94193.13;5071619;28;7090;-65
2024/04/07 01:10:53;;;;;;;;;;;;;;;24.14;40.81;94204.88;5081138;28;7301;-65
2024/04/07 01:13:24;;;;;;;;;;;;;;;24.07;40.94;94200.66;5070118;28;7487;-65
2024/04/07 01:15:52;;;;;;;;;;;;;;;24.17;40.70;94209.34;5074647;28;7115;-65
2024/04/07 01:18:19;;;;;;;;;;;;;;;24.15;40.88;94201.59;5068005;28;7186;-65
2024/04/07 01:20:45;;;;;;;;;;;;;;;24.17;40.67;94217.56;5084342;28;9042;-65
2024/04/07 01:23:23;;;;;;;;;;;;;;;24.17;41.12;94209.34;5080271;28;7335;-65
2024/04/07 01:25:52;;;;;;;;;;;;;;;24.21;40.47;94224.31;5065871;28;7110;-65
2024/04/07 01:28:20;;;;;;;;;;;;;;;24.22;40.34;94234.06;5080287;28;7235;-64
2024/04/07 01:30:46;;;;;;;;;;;;;;;24.23;40.52;94224.56;5081944;28;8150;-65
2024/04/07 01:33:12;;;;;;;;;;;;;;;24.23;40.76;94226.56;5071642;28;7054;-64
2024/04/07 01:35:42;;;;;;;;;;;;;;;24.22;41.11;94228.56;5083089;28;7042;-65
2024/04/07 01:38:15;;;;;;;;;;;;;;;24.22;40.74;94241.56;5068127;28;7047;-64
2024/04/07 01:40:44;;;;;;;;;;;;;;;24.20;41.04;94236.56;5071226;28;6992;-65
2024/04/07 01:43:19;;;;;;;;;;;;;;;24.14;40.69;94229.59;5072373;28;7022;-64
2024/04/07 01:45:51;;;;;;;;;;;;;;;24.12;40.52;94224.59;5087189;28;8773;-63
2024/04/07 01:48:24;;;;;;;;;;;;;;;24.15;40.27;94234.59;5071856;28;7714;-64
2024/04/07 01:50:52;;;;;;;;;;;;;;;24.15;40.48;94222.84;5051110;28;9288;-64
2024/04/07 01:53:23;;;;;;;;;;;;;;;24.16;40.02;94227.09;5090903;28;7027;-63
2024/04/07 01:56:19;;;;;;;;;;;;;;;24.18;40.68;94219.84;5072374;28;7187;-63
2024/04/07 01:58:50;;;;;;;;;;;;;;;24.14;40.70;94211.09;4995710;28;8811;-64
2024/04/07 02:01:27;;;;;;;;;;;;;;;24.14;40.30;94216.59;5010980;28;7040;-63
2024/04/07 02:04:02;;;;;;;;;;;;;;;24.06;40.14;94214.88;5025645;28;7246;-64
2024/04/07 02:06:34;;;;;;;;;;;;;;;24.09;40.22;94211.88;5012338;28;7224;-64
2024/04/07 02:09:00;;;;;;;;;;;;;;;24.04;40.09;94218.09;5012717;28;7061;-64
2024/04/07 02:11:25;;;;;;;;;;;;;;;24.14;40.64;94218.59;4994500;28;7569;-63
2024/04/07 02:13:51;;;;;;;;;;;;;;;24.13;40.32;94212.34;5018151;28;7241;-64
2024/04/07 02:16:17;;;;;;;;;;;;;;;24.07;40.78;94203.38;5013050;28;7116;-63
2024/04/07 02:18:51;;;;;;;;;;;;;;;24.17;39.91;94214.84;5017030;28;7080;-64
2024/04/07 02:21:27;;;;;;;;;;;;;;;24.14;40.71;94210.38;5017773;28;7207;-63
2024/04/07 02:23:54;;;;;;;;;;;;;;;24.17;39.99;94201.84;5014331;28;7030;-64
2024/04/07 02:26:21;;;;;;;;;;;;;;;24.17;40.16;94214.84;5016063;28;7106;-64
2024/04/07 02:29:03;;;;;;;;;;;;;;;24.09;40.45;94209.13;4999829;28;7201;-64
2024/04/07 02:31:39;;;;;;;;;;;;;;;24.12;40.47;94208.09;5015076;28;7044;-63
2024/04/07 02:34:10;;;;;;;;;;;;;;;24.07;40.30;94195.16;4997696;28;9141;-64
2024/04/07 02:36:37;;;;;;;;;;;;;;;24.12;40.21;94196.38;5042680;28;8682;-64
2024/04/07 02:39:41;;;;;;;;;;;;;;;24.13;40.50;94189.63;5075288;28;7146;-64
2024/04/07 02:42:17;;;;;;;;;;;;;;;24.07;40.31;94214.38;5077380;28;7916;-64
2024/04/07 02:48:05;;;;;;;;;;;;;;;24.08;40.84;94237.84;5077508;28;7038;-64
2024/04/07 02:50:35;;;;;;;;;;;;;;;24.13;40.45;94231.59;5072356;28;7453;-64
2024/04/07 02:53:07;;;;;;;;;;;;;;;24.08;40.12;94248.84;5077893;28;7308;-59
2024/04/07 02:55:37;;;;;;;;;;;;;;;24.11;40.52;94241.59;5075556;28;7343;-59
2024/04/07 02:58:13;;;;;;;;;;;;;;;24.15;40.51;94240.06;5075961;28;7051;-58
2024/04/07 03:01:12;;;;;;;;;;;;;;;24.15;40.13;94237.31;5075834;28;9177;-59
2024/04/07 03:03:44;;;;;;;;;;;;;;;24.10;40.17;94235.34;4990784;28;7016;-59
2024/04/07 03:06:41;;;;;;;;;;;;;;;24.14;40.60;94237.84;5014060;28;7270;-59
2024/04/07 03:09:10;;;;;;;;;;;;;;;24.14;39.91;94244.06;4945095;28;7567;-59
2024/04/07 03:11:38;;;;;;;;;;;;;;;24.14;40.42;94237.84;4947407;28;7017;-59
2024/04/07 03:14:05;;;;;;;;;;;;;;;24.11;40.16;94230.59;4939364;28;7215;-59
2024/04/07 03:16:40;;;;;;;;;;;;;;;24.07;40.67;94233.63;4945188;28;7030;-59
2024/04/07 03:19:27;;;;;;;;;;;;;;;24.10;40.75;94243.59;4954685;28;7312;-59
2024/04/07 03:22:03;;;;;;;;;;;;;;;24.07;40.40;94244.59;4941016;28;9065;-59
2024/04/07 03:24:47;;;;;;;;;;;;;;;24.03;40.10;94233.09;4942674;28;7118;-59
2024/04/07 03:27:42;;;;;;;;;;;;;;;24.05;39.99;94247.13;4928814;28;7097;-59
2024/04/07 03:30:10;;;;;;;;;;;;;;;23.95;40.45;94232.84;4879211;29;7029;-59
2024/04/07 03:32:38;;;;;;;;;;;;;;;24.02;40.26;94250.81;4862189;29;8492;-59
2024/04/07 03:35:21;;;;;;;;;;;;;;;23.98;40.34;94226.38;4897765;29;7980;-65
2024/04/07 03:37:52;;;;;;;;;;;;;;;24.07;39.85;94239.09;4891901;29;7070;-60
2024/04/07 03:40:25;;;;;;;;;;;;;;;24.03;40.37;94237.84;4915489;29;7283;-60
2024/04/07 03:42:52;;;;;;;;;;;;;;;24.08;40.14;94248.84;4916033;29;7081;-60
2024/04/07 03:45:26;;;;;;;;;;;;;;;24.03;40.52;94230.34;4930938;28;7031;-60
2024/04/07 03:48:02;;;;;;;;;;;;;;;24.04;39.79;94233.81;4970875;28;7422;-60
2024/04/07 03:50:29;;;;;;;;;;;;;;;24.09;40.54;94241.34;4985478;28;7261;-60
2024/04/07 03:53:07;;;;;;;;;;;;;;;24.01;40.06;94241.09;4976651;28;7028;-60
2024/04/07 03:55:35;;;;;;;;;;;;;;;24.01;40.12;94243.84;4969944;28;8081;-60
2024/04/07 03:58:20;;;;;;;;;;;;;;;24.07;40.08;94254.84;4965821;28;7276;-60
2024/04/07 04:01:00;;;;;;;;;;;;;;;24.07;39.91;94266.59;4979203;28;7106;-60
2024/04/07 04:03:35;;;;;;;;;;;;;;;24.04;40.68;94261.31;4990058;28;7051;-65
2024/04/07 04:06:09;;;;;;;;;;;;;;;24.04;40.10;94259.31;5019073;28;7202;-65
2024/04/07 04:08:37;;;;;;;;;;;;;;;24.06;39.94;94270.56;5074490;28;7071;-64
2024/04/07 04:11:06;;;;;;;;;;;;;;;24.01;39.98;94276.81;5090596;28;7025;-65
2024/04/07 04:13:37;;;;;;;;;;;;;;;24.00;40.28;94278.06;5085307;28;7197;-65
2024/04/07 04:16:06;;;;;;;;;;;;;;;23.99;40.12;94285.53;5077745;28;7137;-65
2024/04/07 04:19:03;;;;;;;;;;;;;;;24.07;40.05;94302.31;5082000;28;7103;-65
2024/04/07 04:21:50;;;;;;;;;;;;;;;24.06;40.16;94314.53;4999055;28;7064;-65
2024/04/07 04:24:36;;;;;;;;;;;;;;;24.05;40.23;94329.53;5009457;28;7214;-65
2024/04/07 04:27:09;;;;;;;;;;;;;;;24.04;40.09;94328.00;5012488;28;8600;-65
2024/04/07 04:29:54;;;;;;;;;;;;;;;24.06;40.50;94350.25;5016316;28;7244;-65
2024/04/07 04:32:22;;;;;;;;;;;;;;;24.04;40.24;94358.22;5025657;28;7257;-64
2024/04/07 04:35:44;;;;;;;;;;;;;;;24.05;39.77;94378.22;5029668;28;7220;-64
2024/04/07 04:38:23;;;;;;;;;;;;;;;24.04;40.53;94379.44;4998629;28;6988;-65
2024/04/07 04:41:06;;;;;;;;;;;;;;;23.97;40.06;94386.19;5012181;28;7228;-64
2024/04/07 04:43:51;;;;;;;;;;;;;;;24.04;39.89;94398.66;4998814;28;7106;-65
2024/04/07 04:46:17;;;;;;;;;;;;;;;23.98;40.49;94399.44;4992230;28;7069;-65
2024/04/07 04:49:13;;;;;;;;;;;;;;;23.99;40.10;94402.91;5008838;28;7296;-65
2024/04/07 04:51:42;;;;;;;;;;;;;;;23.92;40.60;94393.19;4960206;28;7060;-65
2024/04/07 04:54:14;;;;;;;;;;;;;;;24.02;40.14;94415.66;4957942;28;7080;-65
2024/04/07 04:56:50;;;;;;;;;;;;;;;23.96;40.06;94409.44;4953498;28;7312;-65
2024/04/07 04:59:27;;;;;;;;;;;;;;;23.98;40.37;94406.94;5018785;28;7204;-64
2024/04/07 05:02:07;;;;;;;;;;;;;;;24.03;40.39;94425.41;5004018;28;7043;-65
2024/04/07 05:04:42;;;;;;;;;;;;;;;24.02;39.98;94423.16;5011342;28;7073;-64
2024/04/07 05:07:17;;;;;;;;;;;;;;;23.98;40.17;94415.16;4993631;28;7623;-65
2024/04/07 05:09:56;;;;;;;;;;;;;;;23.99;40.04;94420.16;5003202;28;7338;-65
2024/04/07 05:12:22;;;;;;;;;;;;;;;23.94;40.40;94409.94;5012145;28;7061;-64
2024/04/07 05:14:49;;;;;;;;;;;;;;;23.99;40.49;94417.41;5011699;28;7302;-64
2024/04/07 05:17:54;;;;;;;;;;;;;;;24.02;40.23;94426.66;5011006;28;7283;-64
2024/04/07 05:20:30;;;;;;;;;;;;;;;24.00;40.60;94415.41;4899105;29;7367;-64
2024/04/07 05:22:58;;;;;;;;;;;;;;;24.02;40.22;94423.16;4915531;29;7344;-64
2024/04/07 05:25:33;;;;;;;;;;;;;;;24.02;40.47;94421.16;4915141;29;7011;-65
2024/04/07 05:28:11;;;;;;;;;;;;;;;23.97;40.05;94417.16;4924066;29;6953;-65
2024/04/07 05:30:40;;;;;;;;;;;;;;;23.97;40.28;94419.91;4926189;29;7297;-64
2024/04/07 05:33:09;;;;;;;;;;;;;;;23.97;40.36;94427.41;4937273;29;7030;-65
2024/04/07 05:35:36;;;;;;;;;;;;;;;23.99;40.30;94427.63;4918034;29;7087;-65
2024/04/07 05:38:15;;;;;;;;;;;;;;;23.99;40.09;94430.38;4940853;29;7017;-64
2024/04/07 05:41:00;;;;;;;;;;;;;;;23.99;40.04;94438.63;4934028;29;7046;-64
2024/04/07 05:43:26;;;;;;;;;;;;;;;23.97;40.42;94443.88;4942005;29;7471;-64
2024/04/07 05:45:53;;;;;;;;;;;;;;;23.90;40.46;94442.38;4920803;29;7856;-65
2024/04/07 05:48:21;;;;;;;;;;;;;;;23.87;40.13;94437.13;4933969;29;7041;-63
2024/04/07 05:50:55;;;;;;;;;;;;;;;23.90;40.27;94450.63;4986835;28;7101;-63
2024/04/07 05:53:47;;;;;;;;;;;;;;;23.97;39.98;94457.63;5067994;28;7269;-63
2024/04/07 05:56:24;;;;;;;;;;;;;;;23.88;40.11;94457.88;5072462;28;7392;-63
2024/04/07 05:58:52;;;;;;;;;;;;;;;23.87;39.63;94457.13;5080006;28;7029;-62
2024/04/07 06:01:39;;;;;;;;;;;;;;;23.87;39.47;94468.09;5070879;28;7109;-63
2024/04/07 06:04:20;;;;;;;;;;;;;;;23.81;39.24;94464.59;5064688;28;6881;-63
2024/04/07 06:06:47;;;;;;;;;;;;;;;23.80;39.05;94474.09;5055307;28;7137;-63
2024/04/07 06:09:19;;;;;;;;;;;;;;;23.79;39.33;94478.06;5072929;28;7055;-69
2024/04/07 06:11:48;;;;;;;;;;;;;;;23.78;39.55;94475.81;5087686;28;6985;-69
2024/04/07 06:14:18;;;;;;;;;;;;;;;23.80;39.32;94492.56;5069836;28;7043;-62
2024/04/07 06:16:49;;;;;;;;;;;;;;;23.77;39.28;94496.31;5070286;28;7030;-62
2024/04/07 06:19:18;;;;;;;;;;;;;;;23.68;39.45;94486.31;5085997;28;7094;-62
2024/04/07 06:21:54;;;;;;;;;;;;;;;23.59;39.21;94486.53;5075495;28;7034;-63
2024/04/07 06:24:51;;;;;;;;;;;;;;;23.68;39.28;94508.28;5079898;28;7076;-62
2024/04/07 06:27:35;;;;;;;;;;;;;;;23.63;39.59;94502.75;4994871;28;7424;-62
2024/04/07 06:30:37;;;;;;;;;;;;;;;23.70;39.88;94513.25;4978064;28;7107;-62
2024/04/07 06:33:12;;;;;;;;;;;;;;;23.65;39.56;94494.75;4988558;28;7070;-61
2024/04/07 06:35:42;;;;;;;;;;;;;;;23.71;40.04;94509.25;4996720;28;7752;-63
2024/04/07 06:38:38;;;;;;;;;;;;;;;23.77;39.69;94518.28;5009306;28;7053;-62
2024/04/07 06:41:20;;;;;;;;;;;;;;;23.73;40.09;94504.00;4940520;28;7053;-61
2024/04/07 06:43:46;;;;;;;;;;;;;;;23.77;39.88;94516.25;4927193;28;7056;-62
2024/04/07 06:46:29;;;;;;;;;;;;;;;23.80;40.32;94517.28;4955217;28;7788;-60
2024/04/07 06:48:56;;;;;;;;;;;;;;;23.80;40.63;94518.03;4951221;28;9114;-61
2024/04/07 06:52:07;;;;;;;;;;;;;;;23.81;40.14;94522.28;4955469;28;9429;-61
2024/04/07 06:55:06;;;;;;;;;;;;;;;23.83;40.38;94516.28;4940976;28;7275;-61
2024/04/07 06:57:51;;;;;;;;;;;;;;;23.87;40.69;94508.56;4904751;29;6867;-62
2024/04/07 07:00:17;;;;;;;;;;;;;;;23.88;40.47;94510.06;4902355;29;7270;-61
2024/04/07 07:02:43;;;;;;;;;;;;;;;23.91;40.56;94509.06;4901754;28;7010;-62
2024/04/07 07:05:26;;;;;;;;;;;;;;;23.92;39.87;94508.56;4975253;28;9178;-62
2024/04/07 07:07:56;;;;;;;;;;;;;;;23.90;39.82;94505.56;4987567;28;7308;-62
2024/04/07 07:10:25;;;;;;;;;;;;;;;23.96;39.17;94519.31;4962231;28;7053;-62
2024/04/07 07:12:54;;;;;;;;;;;;;;;23.94;40.03;94508.06;4967963;28;9130;-62
2024/04/07 07:15:20;;;;;;;;;;;;;;;23.97;40.04;94512.56;4957120;28;7076;-62
2024/04/07 07:17:55;;;;;;;;;;;;;;;23.94;40.00;94510.81;5009703;28;7313;-61
2024/04/07 07:20:31;;;;;;;;;;;;;;;23.99;40.16;94512.81;4999225;28;7409;-61
2024/04/07 07:23:16;;;;;;;;;;;;;;;24.00;40.29;94508.81;4989988;28;7219;-63
2024/04/07 07:25:54;;;;;;;;;;;;;;;23.99;40.35;94507.31;5013826;28;7549;-65
2024/04/07 07:28:27;;;;;;;;;;;;;;;23.96;39.87;94514.56;5014309;28;7139;-66
2024/04/07 07:30:55;;;;;;;;;;;;;;;23.94;40.38;94517.06;5000463;28;7105;-65
2024/04/07 07:33:48;;;;;;;;;;;;;;;23.93;40.29;94525.78;5033873;28;7409;-65
2024/04/07 07:36:13;;;;;;;;;;;;;;;23.90;40.21;94526.81;4989341;28;7129;-63
2024/04/07 07:38:50;;;;;;;;;;;;;;;23.93;40.12;94520.28;5014125;28;7031;-63
2024/04/07 07:41:28;;;;;;;;;;;;;;;23.98;40.14;94528.56;4976992;28;7650;-64
2024/04/07 07:43:54;;;;;;;;;;;;;;;23.98;40.16;94533.31;5004285;28;7157;-65
2024/04/07 07:46:40;;;;;;;;;;;;;;;23.95;40.29;94517.81;4974439;28;7087;-62
2024/04/07 07:49:17;;;;;;;;;;;;;;;24.03;40.19;94540.81;4978511;28;9481;-63
2024/04/07 07:52:19;;;;;;;;;;;;;;;24.00;39.93;94528.06;5003322;28;7230;-61
2024/04/07 07:58:38;;;;;;;;;;;;;;;23.89;40.07;94530.78;4954549;28;7104;-60
2024/04/07 08:01:31;;;;;;;;;;;;;;;23.88;40.68;94537.53;4954773;28;7727;-60
2024/04/07 08:04:14;;;;;;;;;;;;;;;23.87;40.44;94536.03;4955848;28;7209;-60
2024/04/07 08:06:48;;;;;;;;;;;;;;;23.91;39.85;94525.53;4956153;28;7076;-60
2024/04/07 08:09:26;;;;;;;;;;;;;;;23.87;40.04;94538.78;4970207;28;7332;-60
2024/04/07 08:11:53;;;;;;;;;;;;;;;23.85;40.26;94530.28;4954568;28;7399;-60
2024/04/07 08:14:22;;;;;;;;;;;;;;;23.85;40.30;94531.03;5031285;28;9037;-60
2024/04/07 08:16:48;;;;;;;;;;;;;;;23.81;40.44;94529.78;5031995;28;6985;-60
2024/04/07 08:19:32;;;;;;;;;;;;;;;23.75;40.57;94520.78;5014242;28;6976;-60
2024/04/07 08:22:09;;;;;;;;;;;;;;;23.76;40.55;94536.00;5031434;28;8771;-60
2024/04/07 08:24:49;;;;;;;;;;;;;;;23.75;40.15;94535.22;5006149;28;7453;-60
2024/04/07 08:27:37;;;;;;;;;;;;;;;23.70;40.59;94527.75;5007948;28;7101;-60
2024/04/07 08:30:05;;;;;;;;;;;;;;;23.75;40.18;94535.22;5057844;28;7130;-60
2024/04/07 08:32:51;;;;;;;;;;;;;;;23.77;40.11;94534.75;5064262;28;6959;-62
2024/04/07 08:35:17;;;;;;;;;;;;;;;23.73;40.20;94534.22;5078162;28;7022;-62
2024/04/07 08:37:44;;;;;;;;;;;;;;;23.73;40.48;94534.97;5056203;28;7590;-63
2024/04/07 08:40:41;;;;;;;;;;;;;;;23.75;39.93;94534.50;5073749;28;9479;-62
2024/04/07 08:43:19;;;;;;;;;;;;;;;23.75;40.03;94534.50;5049735;28;7306;-63
2024/04/07 08:45:49;;;;;;;;;;;;;;;23.74;39.75;94535.72;5072628;28;7634;-63
2024/04/07 08:48:52;;;;;;;;;;;;;;;23.78;39.56;94533.50;5074283;28;7513;-63
2024/04/07 08:51:33;;;;;;;;;;;;;;;23.72;40.05;94522.50;5015179;28;7312;-63
2024/04/07 08:54:34;;;;;;;;;;;;;;;23.74;39.41;94536.50;5019779;28;7119;-63
2024/04/07 08:57:09;;;;;;;;;;;;;;;23.71;38.75;94537.47;4989138;28;7475;-64
2024/04/07 08:59:55;;;;;;;;;;;;;;;23.74;39.45;94533.00;4999059;28;7045;-62
2024/04/07 09:02:58;;;;;;;;;;;;;;;23.74;39.67;94538.47;5002688;28;7374;-63
2024/04/07 09:05:39;;;;;;;;;;;;;;;23.73;39.55;94528.72;4965844;28;7077;-63
2024/04/07 09:08:26;;;;;;;;;;;;;;;23.79;39.97;94526.78;4954183;28;7487;-64
2024/04/07 09:10:52;;;;;;;;;;;;;;;23.79;39.74;94524.03;4969339;28;7234;-63
2024/04/07 09:13:20;;;;;;;;;;;;;;;23.82;39.17;94520.28;4953407;28;7020;-63
2024/04/07 09:15:46;;;;;;;;;;;;;;;23.82;39.15;94526.53;4936898;28;8747;-65
2024/04/07 09:18:16;;;;;;;;;;;;;;;23.86;39.68;94521.53;4943884;28;7030;-65
2024/04/07 09:20:44;;;;;;;;;;;;;;;23.84;39.14;94510.28;4950804;28;7276;-65
2024/04/07 09:23:11;;;;;;;;;;;;;;;23.85;38.45;94506.31;4952283;28;7437;-65
2024/04/07 09:25:37;;;;;;;;;;;;;;;23.89;39.26;94509.56;4960272;28;7259;-65
2024/04/07 09:28:06;;;;;;;;;;;;;;;23.95;38.84;94507.56;4979270;28;7459;-63
2024/04/07 09:30:39;;;;;;;;;;;;;;;23.99;39.20;94519.06;4997302;28;7268;-66
2024/04/07 09:33:07;;;;;;;;;;;;;;;23.93;39.02;94510.06;5002045;28;9070;-65
2024/04/07 09:35:35;;;;;;;;;;;;;;;23.93;38.36;94523.03;4979250;28;9929;-65
2024/04/07 09:38:05;;;;;;;;;;;;;;;23.88;38.52;94515.56;4979203;28;7054;-65
2024/04/07 09:40:46;;;;;;;;;;;;;;;23.90;38.26;94521.31;4999892;28;9255;-66
2024/04/07 09:43:14;;;;;;;;;;;;;;;23.88;37.90;94510.06;5080178;28;7112;-66
2024/04/07 09:45:48;;;;;;;;;;;;;;;23.87;38.35;94505.81;5077866;28;7121;-66
2024/04/07 09:48:20;;;;;;;;;;;;;;;23.82;38.41;94506.53;5065844;28;7026;-62
2024/04/07 09:51:17;;;;;;;;;;;;;;;23.88;38.62;94515.56;5074278;28;7357;-63
2024/04/07 09:54:11;;;;;;;;;;;;;;;23.89;38.12;94519.78;5023435;28;7664;-62
2024/04/07 09:56:38;;;;;;;;;;;;;;;23.86;40.29;94507.03;5034955;28;7325;-62
2024/04/07 09:59:15;;;;;;;;;;;;;;;23.93;40.08;94510.06;5027588;28;7277;-62
2024/04/07 10:01:52;;;;;;;;;;;;;;;23.99;39.62;94508.06;5043105;28;7051;-63
2024/04/07 10:04:38;;;;;;;;;;;;;;;23.99;39.65;94513.56;5039225;28;7039;-62
2024/04/07 10:07:08;;;;;;;;;;;;;;;23.99;39.79;94524.56;5040649;28;7158;-60
2024/04/07 10:09:45;;;;;;;;;;;;;;;23.94;39.84;94510.81;5041453;28;7226;-61
2024/04/07 10:12:13;;;;;;;;;;;;;;;23.97;38.89;94515.31;5034005;28;7275;-61
2024/04/07 10:14:41;;;;;;;;;;;;;;;23.96;38.64;94519.31;5039145;28;7297;-62
2024/04/07 10:17:16;;;;;;;;;;;;;;;24.07;38.35;94522.13;5025319;28;8423;-63
2024/04/07 10:20:15;;;;;;;;;;;;;;;24.15;38.54;94528.63;5049798;28;7153;-62
2024/04/07 10:22:43;;;;;;;;;;;;;;;24.20;38.06;94522.38;4933474;29;7401;-62
2024/04/07 10:25:10;;;;;;;;;;;;;;;24.25;39.09;94512.63;4947125;28;7047;-61
2024/04/07 10:27:44;;;;;;;;;;;;;;;24.27;38.31;94510.13;4952271;28;7036;-61
2024/04/07 10:30:14;;;;;;;;;;;;;;;24.30;38.34;94509.88;4940552;28;7044;-62
2024/04/07 10:32:49;;;;;;;;;;;;;;;24.29;39.06;94505.66;4969571;28;7107;-62
2024/04/07 10:35:16;;;;;;;;;;;;;;;24.31;38.94;94502.41;4967846;28;7064;-62
2024/04/07 10:37:42;;;;;;;;;;;;;;;24.36;38.64;94518.88;4967866;28;6991;-62
2024/04/07 10:40:09;;;;;;;;;;;;;;;24.36;38.89;94502.38;4950865;28;7880;-62
2024/04/07 10:42:38;;;;;;;;;;;;;;;24.29;39.48;94488.41;4981922;28;7541;-62
2024/04/07 10:45:07;;;;;;;;;;;;;;;24.26;39.22;94481.91;4970042;28;7049;-62
2024/04/07 10:47:36;;;;;;;;;;;;;;;24.38;39.59;94493.66;4971876;28;7001;-62
2024/04/07 10:50:04;;;;;;;;;;;;;;;24.39;38.95;94490.41;4969242;28;7750;-62
2024/04/07 10:52:31;;;;;;;;;;;;;;;24.35;39.42;94481.66;4959690;28;8973;-63
2024/04/07 10:54:58;;;;;;;;;;;;;;;24.45;39.54;94482.13;4986242;28;9175;-61
2024/04/07 10:57:29;;;;;;;;;;;;;;;24.50;39.06;94489.63;4967423;28;7089;-61
2024/04/07 11:00:08;;;;;;;;;;;;;;;24.65;39.82;94501.88;5058581;28;9071;-61
2024/04/07 11:02:39;;;;;;;;;;;;;;;24.73;38.58;94497.34;5079565;28;7039;-62
2024/04/07 11:05:50;;;;;;;;;;;;;;;24.89;38.80;94492.34;5053594;28;7023;-62
2024/04/07 11:08:27;;;;;;;;;;;;;;;25.02;38.88;94484.31;5019383;28;7034;-61
2024/04/07 11:10:55;;;;;;;;;;;;;;;25.04;38.30;94465.31;5026123;28;7052;-61
2024/04/07 11:13:23;;;;;;;;;;;;;;;25.07;38.24;94464.31;5003648;28;7293;-64
2024/04/07 11:15:51;;;;;;;;;;;;;;;25.13;38.28;94456.78;4995479;28;7026;-60
2024/04/07 11:18:24;;;;;;;;;;;;;;;25.15;38.60;94454.25;5018877;28;7054;-62
2024/04/07 11:21:01;;;;;;;;;;;;;;;25.17;38.39;94457.25;5025491;28;7810;-61
2024/04/07 11:24:01;;;;;;;;;;;;;;;25.17;38.41;94466.25;5005448;28;7043;-61
2024/04/07 11:26:39;;;;;;;;;;;;;;;25.18;38.49;94467.03;4915682;28;7031;-60
2024/04/07 11:29:09;;;;;;;;;;;;;;;25.10;38.76;94447.53;4928249;29;7102;-63
2024/04/07 11:31:35;;;;;;;;;;;;;;;25.05;38.85;94444.78;4931992;28;7033;-63
2024/04/07 11:34:19;;;;;;;;;;;;;;;25.11;38.40;94448.28;4933293;29;7026;-63
2024/04/07 11:36:54;;;;;;;;;;;;;;;25.09;39.26;94448.78;4927857;28;7026;-62
2024/04/07 11:39:20;;;;;;;;;;;;;;;25.11;38.99;94454.53;4941348;28;7926;-62
2024/04/07 11:42:37;;;;;;;;;;;;;;;25.10;38.52;94455.03;4941013;28;7268;-62
2024/04/07 11:45:04;;;;;;;;;;;;;;;25.05;39.04;94440.06;4951126;28;7319;-62
2024/04/07 11:47:32;;;;;;;;;;;;;;;24.95;38.64;94424.31;4977873;28;7020;-63
2024/04/07 11:50:07;;;;;;;;;;;;;;;24.94;38.77;94439.31;4978577;28;7120;-61
2024/04/07 11:53:02;;;;;;;;;;;;;;;24.89;38.39;94438.09;4988299;28;7109;-59
2024/04/07 11:55:37;;;;;;;;;;;;;;;24.79;39.74;94433.38;4960412;28;7098;-64
2024/04/07 11:58:39;;;;;;;;;;;;;;;24.73;39.62;94428.59;4958436;28;7246;-63
2024/04/07 12:01:05;;;;;;;;;;;;;;;24.67;38.96;94430.63;4979601;28;7319;-63
2024/04/07 12:03:53;;;;;;;;;;;;;;;24.61;39.61;94420.88;5039371;28;7261;-62
2024/04/07 12:06:22;;;;;;;;;;;;;;;24.60;39.31;94425.63;5026410;28;7290;-62
2024/04/07 12:09:20;;;;;;;;;;;;;;;24.57;39.75;94428.66;5018318;28;7179;-62
2024/04/07 12:11:48;;;;;;;;;;;;;;;24.56;40.12;94425.13;5026500;28;7958;-61
2024/04/07 12:14:14;;;;;;;;;;;;;;;24.55;39.82;94409.91;5032715;28;7225;-62
2024/04/07 12:16:40;;;;;;;;;;;;;;;24.52;40.16;94404.66;5010924;28;7224;-65
2024/04/07 12:19:06;;;;;;;;;;;;;;;24.57;40.14;94404.66;5008297;28;7228;-64
2024/04/07 12:21:31;;;;;;;;;;;;;;;24.56;39.96;94405.13;5029207;28;7023;-64
2024/04/07 12:24:00;;;;;;;;;;;;;;;24.55;39.92;94395.41;5022981;28;7234;-64
2024/04/07 12:26:32;;;;;;;;;;;;;;;24.50;40.19;94377.66;5034004;28;7072;-64
2024/04/07 12:29:31;;;;;;;;;;;;;;;24.58;40.37;94395.13;5035555;28;6958;-64
2024/04/07 12:32:15;;;;;;;;;;;;;;;24.59;39.98;94382.91;5031515;28;7196;-64
2024/04/07 12:35:11;;;;;;;;;;;;;;;24.65;39.70;94391.13;5029499;28;9349;-64
2024/04/07 12:37:46;;;;;;;;;;;;;;;24.61;39.63;94374.88;5011245;28;7228;-64
2024/04/07 12:40:25;;;;;;;;;;;;;;;24.60;39.20;94373.38;4995742;28;7128;-64
2024/04/07 12:43:05;;;;;;;;;;;;;;;24.64;39.06;94368.34;5011642;28;7036;-64
2024/04/07 12:45:31;;;;;;;;;;;;;;;24.62;39.28;94359.13;5012078;28;7112;-64
2024/04/07 12:48:20;;;;;;;;;;;;;;;24.74;39.38;94363.34;5011907;28;7066;-64
2024/04/07 12:50:46;;;;;;;;;;;;;;;24.73;39.65;94354.34;5009352;28;7084;-64
2024/04/07 12:53:29;;;;;;;;;;;;;;;24.75;39.44;94347.63;5006729;28;9133;-64
2024/04/07 12:56:09;;;;;;;;;;;;;;;24.75;39.08;94339.38;5011907;28;7074;-64
2024/04/07 12:58:44;;;;;;;;;;;;;;;24.73;39.42;94339.81;5000553;28;7018;-64
2024/04/07 13:01:39;;;;;;;;;;;;;;;24.77;38.70;94342.34;5013784;28;7320;-65
2024/04/07 13:04:34;;;;;;;;;;;;;;;24.75;39.46;94331.13;4980868;28;7022;-64
2024/04/07 13:07:05;;;;;;;;;;;;;;;24.73;38.82;94324.06;4941323;28;7681;-64
2024/04/07 13:09:33;;;;;;;;;;;;;;;24.81;38.51;94329.09;4955951;28;7603;-64
2024/04/07 13:12:01;;;;;;;;;;;;;;;24.80;38.91;94319.31;4939937;28;7195;-64
2024/04/07 13:14:31;;;;;;;;;;;;;;;24.78;38.74;94319.09;4981059;28;7027;-64
2024/04/07 13:17:04;;;;;;;;;;;;;;;24.78;39.14;94321.84;4994615;28;9466;-64
2024/04/07 13:19:47;;;;;;;;;;;;;;;24.76;38.71;94311.34;4989302;28;7281;-65
2024/04/07 13:22:16;;;;;;;;;;;;;;;24.71;38.86;94301.09;5006750;28;7356;-65
2024/04/07 13:25:04;;;;;;;;;;;;;;;24.79;38.63;94312.34;4996238;28;7209;-65
2024/04/07 13:27:32;;;;;;;;;;;;;;;24.76;39.13;94296.84;5011680;28;7370;-64
2024/04/07 13:30:09;;;;;;;;;;;;;;;24.80;38.72;94291.81;4994888;28;7272;-64
2024/04/07 13:32:35;;;;;;;;;;;;;;;24.80;39.02;94294.56;5011501;28;9427;-64
2024/04/07 13:35:05;;;;;;;;;;;;;;;24.81;39.15;94294.06;4995049;28;6954;-65
2024/04/07 13:37:41;;;;;;;;;;;;;;;24.78;39.10;94286.06;5011255;28;7971;-64
2024/04/07 13:40:08;;;;;;;;;;;;;;;24.73;38.33;94279.31;5008572;28;7114;-65
2024/04/07 13:42:35;;;;;;;;;;;;;;;24.82;38.86;94284.56;5037395;28;7312;-65
2024/04/07 13:45:04;;;;;;;;;;;;;;;24.87;38.33;94283.03;5075901;28;7104;-64
2024/04/07 13:47:39;;;;;;;;;;;;;;;24.82;38.85;94270.03;5068729;28;7156;-61